sensor_id;sensor_type;location;lat;lon;timestamp;P1;durP1;ratioP1;P2;durP2;ratioP2
55684;SDS011;41883;49.544;8.646;2022-11-14T00:00:22;12.75;;;8.50;;
55684;SDS011;41883;49.544;8.646;2022-11-14T00:02:47;13.48;;;9.75;;
55684;SDS011;41883;49.544;8.646;2022-11-14T00:05:12;14.32;;;9.57;;
55684;SDS011;41883;49.544;8.646;2022-11-14T00:07:38;14.23;;;8.55;;
55684;SDS011;41883;49.544;8.646;2022-11-14T00:10:03;11.88;;;7.72;;
55684;SDS011;41883;49.544;8.646;2022-11-14T00:12:29;11.13;;;6.80;;
55684;SDS011;41883;49.544;8.646;2022-11-14T00:14:54;11.68;;;7.78;;
55684;SDS011;41883;49.544;8.646;2022-11-14T00:17:20;12.10;;;8.20;;
55684;SDS011;41883;49.544;8.646;2022-11-14T00:19:45;18.33;;;11.93;;
55684;SDS011;41883;49.544;8.646;2022-11-14T00:22:11;17.00;;;11.00;;
55684;SDS011;41883;49.544;8.646;2022-11-14T00:24:36;27.40;;;11.85;;
55684;SDS011;41883;49.544;8.646;2022-11-14T00:27:01;16.02;;;10.32;;
55684;SDS011;41883;49.544;8.646;2022-11-14T00:29:26;17.17;;;10.65;;
55684;SDS011;41883;49.544;8.646;2022-11-14T00:31:52;15.90;;;9.98;;
55684;SDS011;41883;49.544;8.646;2022-11-14T00:34:17;14.23;;;9.80;;
55684;SDS011;41883;49.544;8.646;2022-11-14T00:36:42;16.80;;;11.23;;
55684;SDS011;41883;49.544;8.646;2022-11-14T00:39:11;20.38;;;12.50;;
55684;SDS011;41883;49.544;8.646;2022-11-14T00:41:38;18.42;;;11.88;;
55684;SDS011;41883;49.544;8.646;2022-11-14T00:44:04;18.25;;;10.95;;
55684;SDS011;41883;49.544;8.646;2022-11-14T00:46:29;15.43;;;10.50;;
55684;SDS011;41883;49.544;8.646;2022-11-14T00:48:54;22.60;;;13.48;;
55684;SDS011;41883;49.544;8.646;2022-11-14T00:51:20;20.85;;;14.18;;
55684;SDS011;41883;49.544;8.646;2022-11-14T00:53:45;21.52;;;14.23;;
55684;SDS011;41883;49.544;8.646;2022-11-14T00:56:10;17.98;;;12.52;;
55684;SDS011;41883;49.544;8.646;2022-11-14T00:58:36;21.83;;;14.65;;
55684;SDS011;41883;49.544;8.646;2022-11-14T01:01:01;20.42;;;13.60;;
55684;SDS011;41883;49.544;8.646;2022-11-14T01:03:26;18.25;;;12.63;;
55684;SDS011;41883;49.544;8.646;2022-11-14T01:05:51;16.00;;;11.02;;
55684;SDS011;41883;49.544;8.646;2022-11-14T01:08:17;16.85;;;10.88;;
55684;SDS011;41883;49.544;8.646;2022-11-14T01:10:44;13.75;;;9.63;;
55684;SDS011;41883;49.544;8.646;2022-11-14T01:13:11;14.70;;;10.48;;
55684;SDS011;41883;49.544;8.646;2022-11-14T01:15:42;14.55;;;10.73;;
55684;SDS011;41883;49.544;8.646;2022-11-14T01:18:11;13.05;;;9.85;;
55684;SDS011;41883;49.544;8.646;2022-11-14T01:20:38;12.60;;;9.60;;
55684;SDS011;41883;49.544;8.646;2022-11-14T01:23:05;12.98;;;8.93;;
55684;SDS011;41883;49.544;8.646;2022-11-14T01:25:34;12.57;;;8.45;;
55684;SDS011;41883;49.544;8.646;2022-11-14T01:28:00;12.60;;;8.75;;
55684;SDS011;41883;49.544;8.646;2022-11-14T01:30:26;11.73;;;8.15;;
55684;SDS011;41883;49.544;8.646;2022-11-14T01:32:52;9.27;;;6.90;;
55684;SDS011;41883;49.544;8.646;2022-11-14T01:35:17;10.20;;;7.57;;
55684;SDS011;41883;49.544;8.646;2022-11-14T01:37:42;10.65;;;8.00;;
55684;SDS011;41883;49.544;8.646;2022-11-14T01:40:08;13.68;;;9.65;;
55684;SDS011;41883;49.544;8.646;2022-11-14T01:42:34;11.02;;;7.97;;
55684;SDS011;41883;49.544;8.646;2022-11-14T01:44:59;10.27;;;7.90;;
55684;SDS011;41883;49.544;8.646;2022-11-14T01:47:25;10.35;;;7.53;;
55684;SDS011;41883;49.544;8.646;2022-11-14T01:49:57;10.13;;;7.85;;
55684;SDS011;41883;49.544;8.646;2022-11-14T01:52:25;11.88;;;8.35;;
55684;SDS011;41883;49.544;8.646;2022-11-14T01:54:56;10.77;;;7.45;;
55684;SDS011;41883;49.544;8.646;2022-11-14T01:57:24;11.23;;;7.80;;
55684;SDS011;41883;49.544;8.646;2022-11-14T01:59:55;9.80;;;6.90;;
55684;SDS011;41883;49.544;8.646;2022-11-14T02:02:24;8.52;;;6.20;;
55684;SDS011;41883;49.544;8.646;2022-11-14T02:05:01;10.38;;;6.20;;
55684;SDS011;41883;49.544;8.646;2022-11-14T02:07:30;9.90;;;7.03;;
55684;SDS011;41883;49.544;8.646;2022-11-14T02:09:59;9.52;;;6.85;;
55684;SDS011;41883;49.544;8.646;2022-11-14T02:12:27;11.45;;;7.95;;
55684;SDS011;41883;49.544;8.646;2022-11-14T02:14:53;10.88;;;7.82;;
55684;SDS011;41883;49.544;8.646;2022-11-14T02:17:20;9.63;;;7.35;;
55684;SDS011;41883;49.544;8.646;2022-11-14T02:19:48;9.02;;;6.70;;
55684;SDS011;41883;49.544;8.646;2022-11-14T02:22:18;8.85;;;6.25;;
55684;SDS011;41883;49.544;8.646;2022-11-14T02:24:43;7.70;;;5.38;;
55684;SDS011;41883;49.544;8.646;2022-11-14T02:27:09;9.43;;;7.00;;
55684;SDS011;41883;49.544;8.646;2022-11-14T02:29:36;12.07;;;8.38;;
55684;SDS011;41883;49.544;8.646;2022-11-14T02:32:02;11.32;;;7.78;;
55684;SDS011;41883;49.544;8.646;2022-11-14T02:34:28;10.52;;;7.63;;
55684;SDS011;41883;49.544;8.646;2022-11-14T02:36:54;10.50;;;7.93;;
55684;SDS011;41883;49.544;8.646;2022-11-14T02:39:20;10.20;;;7.13;;
55684;SDS011;41883;49.544;8.646;2022-11-14T02:41:45;10.70;;;7.70;;
55684;SDS011;41883;49.544;8.646;2022-11-14T02:44:10;11.80;;;8.27;;
55684;SDS011;41883;49.544;8.646;2022-11-14T02:46:36;14.02;;;9.30;;
55684;SDS011;41883;49.544;8.646;2022-11-14T02:49:01;13.00;;;8.77;;
55684;SDS011;41883;49.544;8.646;2022-11-14T02:51:26;14.05;;;10.25;;
55684;SDS011;41883;49.544;8.646;2022-11-14T02:53:52;17.10;;;10.88;;
55684;SDS011;41883;49.544;8.646;2022-11-14T02:56:17;15.82;;;10.32;;
55684;SDS011;41883;49.544;8.646;2022-11-14T02:58:42;14.02;;;9.13;;
55684;SDS011;41883;49.544;8.646;2022-11-14T03:01:08;14.50;;;9.77;;
55684;SDS011;41883;49.544;8.646;2022-11-14T03:03:33;12.00;;;8.27;;
55684;SDS011;41883;49.544;8.646;2022-11-14T03:06:02;14.38;;;9.55;;
55684;SDS011;41883;49.544;8.646;2022-11-14T03:08:28;13.02;;;8.60;;
55684;SDS011;41883;49.544;8.646;2022-11-14T03:10:53;12.18;;;8.32;;
55684;SDS011;41883;49.544;8.646;2022-11-14T03:13:19;10.75;;;8.02;;
55684;SDS011;41883;49.544;8.646;2022-11-14T03:15:45;9.32;;;7.47;;
55684;SDS011;41883;49.544;8.646;2022-11-14T03:18:10;10.75;;;8.10;;
55684;SDS011;41883;49.544;8.646;2022-11-14T03:20:36;8.82;;;6.72;;
55684;SDS011;41883;49.544;8.646;2022-11-14T03:23:02;11.13;;;7.20;;
55684;SDS011;41883;49.544;8.646;2022-11-14T03:25:28;12.05;;;8.15;;
55684;SDS011;41883;49.544;8.646;2022-11-14T03:27:53;14.48;;;9.93;;
55684;SDS011;41883;49.544;8.646;2022-11-14T03:30:19;12.18;;;8.77;;
55684;SDS011;41883;49.544;8.646;2022-11-14T03:32:44;12.73;;;9.00;;
55684;SDS011;41883;49.544;8.646;2022-11-14T03:35:09;12.40;;;8.02;;
55684;SDS011;41883;49.544;8.646;2022-11-14T03:37:35;11.25;;;7.78;;
55684;SDS011;41883;49.544;8.646;2022-11-14T03:40:00;11.18;;;7.90;;
55684;SDS011;41883;49.544;8.646;2022-11-14T03:42:26;11.82;;;8.32;;
55684;SDS011;41883;49.544;8.646;2022-11-14T03:44:51;10.20;;;7.22;;
55684;SDS011;41883;49.544;8.646;2022-11-14T03:47:16;10.63;;;7.38;;
55684;SDS011;41883;49.544;8.646;2022-11-14T03:49:42;10.07;;;7.05;;
55684;SDS011;41883;49.544;8.646;2022-11-14T03:52:09;14.30;;;9.23;;
55684;SDS011;41883;49.544;8.646;2022-11-14T03:54:35;12.82;;;8.63;;
55684;SDS011;41883;49.544;8.646;2022-11-14T03:57:00;13.68;;;8.27;;
55684;SDS011;41883;49.544;8.646;2022-11-14T03:59:25;13.82;;;9.07;;
55684;SDS011;41883;49.544;8.646;2022-11-14T04:01:50;12.23;;;8.10;;
55684;SDS011;41883;49.544;8.646;2022-11-14T04:04:16;13.05;;;8.98;;
55684;SDS011;41883;49.544;8.646;2022-11-14T04:06:41;15.13;;;9.35;;
55684;SDS011;41883;49.544;8.646;2022-11-14T04:09:06;14.55;;;9.10;;
55684;SDS011;41883;49.544;8.646;2022-11-14T04:11:32;17.50;;;10.85;;
55684;SDS011;41883;49.544;8.646;2022-11-14T04:13:57;15.55;;;11.43;;
55684;SDS011;41883;49.544;8.646;2022-11-14T04:16:22;16.92;;;12.02;;
55684;SDS011;41883;49.544;8.646;2022-11-14T04:18:47;17.80;;;12.25;;
55684;SDS011;41883;49.544;8.646;2022-11-14T04:21:13;17.30;;;11.18;;
55684;SDS011;41883;49.544;8.646;2022-11-14T04:23:38;15.40;;;11.07;;
55684;SDS011;41883;49.544;8.646;2022-11-14T04:26:03;15.98;;;11.65;;
55684;SDS011;41883;49.544;8.646;2022-11-14T04:28:29;16.67;;;12.43;;
55684;SDS011;41883;49.544;8.646;2022-11-14T04:30:54;20.63;;;14.85;;
55684;SDS011;41883;49.544;8.646;2022-11-14T04:33:19;18.58;;;13.23;;
55684;SDS011;41883;49.544;8.646;2022-11-14T04:35:44;19.17;;;13.43;;
55684;SDS011;41883;49.544;8.646;2022-11-14T04:38:10;24.05;;;15.85;;
55684;SDS011;41883;49.544;8.646;2022-11-14T04:40:35;21.95;;;14.55;;
55684;SDS011;41883;49.544;8.646;2022-11-14T04:43:00;20.67;;;13.43;;
55684;SDS011;41883;49.544;8.646;2022-11-14T04:45:26;19.30;;;13.57;;
55684;SDS011;41883;49.544;8.646;2022-11-14T04:47:51;20.05;;;13.70;;
55684;SDS011;41883;49.544;8.646;2022-11-14T04:50:16;17.73;;;12.68;;
55684;SDS011;41883;49.544;8.646;2022-11-14T04:52:42;17.58;;;12.27;;
55684;SDS011;41883;49.544;8.646;2022-11-14T04:55:07;18.25;;;12.48;;
55684;SDS011;41883;49.544;8.646;2022-11-14T04:57:33;15.52;;;11.05;;
55684;SDS011;41883;49.544;8.646;2022-11-14T04:59:58;18.67;;;12.98;;
55684;SDS011;41883;49.544;8.646;2022-11-14T05:02:23;17.10;;;12.20;;
55684;SDS011;41883;49.544;8.646;2022-11-14T05:04:48;18.13;;;13.52;;
55684;SDS011;41883;49.544;8.646;2022-11-14T05:07:14;19.10;;;13.52;;
55684;SDS011;41883;49.544;8.646;2022-11-14T05:09:39;18.00;;;12.45;;
55684;SDS011;41883;49.544;8.646;2022-11-14T05:12:05;18.48;;;12.80;;
55684;SDS011;41883;49.544;8.646;2022-11-14T05:14:31;19.23;;;13.02;;
55684;SDS011;41883;49.544;8.646;2022-11-14T05:16:56;19.05;;;13.52;;
55684;SDS011;41883;49.544;8.646;2022-11-14T05:19:22;19.15;;;13.80;;
55684;SDS011;41883;49.544;8.646;2022-11-14T05:21:47;19.17;;;13.35;;
55684;SDS011;41883;49.544;8.646;2022-11-14T05:24:13;20.75;;;14.93;;
55684;SDS011;41883;49.544;8.646;2022-11-14T05:26:38;22.70;;;15.02;;
55684;SDS011;41883;49.544;8.646;2022-11-14T05:29:03;22.02;;;14.80;;
55684;SDS011;41883;49.544;8.646;2022-11-14T05:31:29;24.02;;;16.20;;
55684;SDS011;41883;49.544;8.646;2022-11-14T05:33:54;24.80;;;16.50;;
55684;SDS011;41883;49.544;8.646;2022-11-14T05:36:20;24.40;;;16.25;;
55684;SDS011;41883;49.544;8.646;2022-11-14T05:38:45;20.47;;;16.50;;
55684;SDS011;41883;49.544;8.646;2022-11-14T05:41:11;21.15;;;16.05;;
55684;SDS011;41883;49.544;8.646;2022-11-14T05:43:38;22.42;;;15.88;;
55684;SDS011;41883;49.544;8.646;2022-11-14T05:46:05;24.02;;;16.77;;
55684;SDS011;41883;49.544;8.646;2022-11-14T05:48:33;27.40;;;17.55;;
55684;SDS011;41883;49.544;8.646;2022-11-14T05:50:59;27.02;;;17.35;;
55684;SDS011;41883;49.544;8.646;2022-11-14T05:53:26;23.77;;;16.73;;
55684;SDS011;41883;49.544;8.646;2022-11-14T05:55:52;22.02;;;15.50;;
55684;SDS011;41883;49.544;8.646;2022-11-14T05:58:18;23.38;;;15.88;;
55684;SDS011;41883;49.544;8.646;2022-11-14T06:00:43;20.75;;;14.38;;
55684;SDS011;41883;49.544;8.646;2022-11-14T06:03:09;17.83;;;12.35;;
55684;SDS011;41883;49.544;8.646;2022-11-14T06:05:34;17.67;;;12.10;;
55684;SDS011;41883;49.544;8.646;2022-11-14T06:08:00;19.35;;;13.20;;
55684;SDS011;41883;49.544;8.646;2022-11-14T06:10:26;16.90;;;11.68;;
55684;SDS011;41883;49.544;8.646;2022-11-14T06:12:51;17.70;;;12.27;;
55684;SDS011;41883;49.544;8.646;2022-11-14T06:15:17;16.75;;;12.02;;
55684;SDS011;41883;49.544;8.646;2022-11-14T06:17:43;16.85;;;11.32;;
55684;SDS011;41883;49.544;8.646;2022-11-14T06:20:08;14.80;;;9.38;;
55684;SDS011;41883;49.544;8.646;2022-11-14T06:22:34;12.82;;;9.73;;
55684;SDS011;41883;49.544;8.646;2022-11-14T06:25:00;16.65;;;11.65;;
55684;SDS011;41883;49.544;8.646;2022-11-14T06:27:26;14.35;;;9.70;;
55684;SDS011;41883;49.544;8.646;2022-11-14T06:29:51;18.38;;;12.20;;
55684;SDS011;41883;49.544;8.646;2022-11-14T06:32:16;20.17;;;12.38;;
55684;SDS011;41883;49.544;8.646;2022-11-14T06:34:41;20.40;;;13.55;;
55684;SDS011;41883;49.544;8.646;2022-11-14T06:37:08;16.98;;;11.73;;
55684;SDS011;41883;49.544;8.646;2022-11-14T06:39:33;20.90;;;14.23;;
55684;SDS011;41883;49.544;8.646;2022-11-14T06:41:58;17.50;;;11.90;;
55684;SDS011;41883;49.544;8.646;2022-11-14T06:44:23;16.13;;;11.15;;
55684;SDS011;41883;49.544;8.646;2022-11-14T06:46:49;18.10;;;12.50;;
55684;SDS011;41883;49.544;8.646;2022-11-14T06:49:14;17.55;;;12.27;;
55684;SDS011;41883;49.544;8.646;2022-11-14T06:51:40;16.15;;;11.13;;
55684;SDS011;41883;49.544;8.646;2022-11-14T06:54:05;16.65;;;11.27;;
55684;SDS011;41883;49.544;8.646;2022-11-14T06:56:30;21.65;;;14.27;;
55684;SDS011;41883;49.544;8.646;2022-11-14T06:58:56;23.55;;;16.33;;
55684;SDS011;41883;49.544;8.646;2022-11-14T07:01:22;22.60;;;14.70;;
55684;SDS011;41883;49.544;8.646;2022-11-14T07:03:50;23.63;;;16.63;;
55684;SDS011;41883;49.544;8.646;2022-11-14T07:06:23;23.02;;;15.13;;
55684;SDS011;41883;49.544;8.646;2022-11-14T07:08:50;22.92;;;15.68;;
55684;SDS011;41883;49.544;8.646;2022-11-14T07:11:18;19.02;;;13.98;;
55684;SDS011;41883;49.544;8.646;2022-11-14T07:13:49;19.00;;;13.05;;
55684;SDS011;41883;49.544;8.646;2022-11-14T07:16:15;22.40;;;15.38;;
55684;SDS011;41883;49.544;8.646;2022-11-14T07:18:41;21.77;;;14.55;;
55684;SDS011;41883;49.544;8.646;2022-11-14T07:21:07;20.55;;;13.77;;
55684;SDS011;41883;49.544;8.646;2022-11-14T07:23:32;21.45;;;14.07;;
55684;SDS011;41883;49.544;8.646;2022-11-14T07:26:00;22.88;;;14.75;;
55684;SDS011;41883;49.544;8.646;2022-11-14T07:28:26;19.70;;;13.43;;
55684;SDS011;41883;49.544;8.646;2022-11-14T07:30:52;21.98;;;14.73;;
55684;SDS011;41883;49.544;8.646;2022-11-14T07:33:17;21.65;;;14.48;;
55684;SDS011;41883;49.544;8.646;2022-11-14T07:35:42;20.95;;;14.15;;
55684;SDS011;41883;49.544;8.646;2022-11-14T07:38:08;22.10;;;14.88;;
55684;SDS011;41883;49.544;8.646;2022-11-14T07:40:33;20.58;;;14.43;;
55684;SDS011;41883;49.544;8.646;2022-11-14T07:42:58;23.90;;;15.82;;
55684;SDS011;41883;49.544;8.646;2022-11-14T07:45:25;25.20;;;14.98;;
55684;SDS011;41883;49.544;8.646;2022-11-14T07:47:55;20.83;;;13.68;;
55684;SDS011;41883;49.544;8.646;2022-11-14T07:50:21;21.77;;;12.80;;
55684;SDS011;41883;49.544;8.646;2022-11-14T07:52:50;17.30;;;11.35;;
55684;SDS011;41883;49.544;8.646;2022-11-14T07:55:17;15.18;;;10.48;;
55684;SDS011;41883;49.544;8.646;2022-11-14T07:57:43;15.20;;;10.23;;
55684;SDS011;41883;49.544;8.646;2022-11-14T08:00:08;14.07;;;9.57;;
55684;SDS011;41883;49.544;8.646;2022-11-14T08:02:34;13.13;;;9.13;;
55684;SDS011;41883;49.544;8.646;2022-11-14T08:05:00;11.98;;;8.13;;
55684;SDS011;41883;49.544;8.646;2022-11-14T08:07:25;11.00;;;8.10;;
55684;SDS011;41883;49.544;8.646;2022-11-14T08:09:50;10.35;;;7.30;;
55684;SDS011;41883;49.544;8.646;2022-11-14T08:12:16;11.82;;;8.23;;
55684;SDS011;41883;49.544;8.646;2022-11-14T08:14:41;17.85;;;11.40;;
55684;SDS011;41883;49.544;8.646;2022-11-14T08:17:06;15.20;;;10.98;;
55684;SDS011;41883;49.544;8.646;2022-11-14T08:19:31;14.25;;;9.82;;
55684;SDS011;41883;49.544;8.646;2022-11-14T08:21:57;13.90;;;10.20;;
55684;SDS011;41883;49.544;8.646;2022-11-14T08:24:22;13.57;;;9.98;;
55684;SDS011;41883;49.544;8.646;2022-11-14T08:26:47;16.13;;;11.45;;
55684;SDS011;41883;49.544;8.646;2022-11-14T08:29:13;15.77;;;11.55;;
55684;SDS011;41883;49.544;8.646;2022-11-14T08:31:38;17.73;;;11.98;;
55684;SDS011;41883;49.544;8.646;2022-11-14T08:34:03;16.63;;;11.68;;
55684;SDS011;41883;49.544;8.646;2022-11-14T08:36:28;16.60;;;10.98;;
55684;SDS011;41883;49.544;8.646;2022-11-14T08:38:54;14.93;;;10.85;;
55684;SDS011;41883;49.544;8.646;2022-11-14T08:41:19;17.92;;;12.85;;
55684;SDS011;41883;49.544;8.646;2022-11-14T08:43:44;15.70;;;11.73;;
55684;SDS011;41883;49.544;8.646;2022-11-14T08:46:10;14.23;;;10.15;;
55684;SDS011;41883;49.544;8.646;2022-11-14T08:48:35;23.77;;;16.40;;
55684;SDS011;41883;49.544;8.646;2022-11-14T08:51:01;19.40;;;14.00;;
55684;SDS011;41883;49.544;8.646;2022-11-14T08:53:27;17.85;;;13.07;;
55684;SDS011;41883;49.544;8.646;2022-11-14T08:55:53;17.58;;;12.55;;
55684;SDS011;41883;49.544;8.646;2022-11-14T08:58:18;17.58;;;13.02;;
55684;SDS011;41883;49.544;8.646;2022-11-14T09:00:43;15.25;;;11.20;;
55684;SDS011;41883;49.544;8.646;2022-11-14T09:03:09;14.15;;;10.40;;
55684;SDS011;41883;49.544;8.646;2022-11-14T09:05:37;16.23;;;12.30;;
55684;SDS011;41883;49.544;8.646;2022-11-14T09:08:03;15.75;;;11.35;;
55684;SDS011;41883;49.544;8.646;2022-11-14T09:10:28;13.27;;;9.93;;
55684;SDS011;41883;49.544;8.646;2022-11-14T09:12:57;11.32;;;8.15;;
55684;SDS011;41883;49.544;8.646;2022-11-14T09:15:23;10.65;;;7.55;;
55684;SDS011;41883;49.544;8.646;2022-11-14T09:17:56;11.43;;;8.23;;
55684;SDS011;41883;49.544;8.646;2022-11-14T09:20:25;15.65;;;11.10;;
55684;SDS011;41883;49.544;8.646;2022-11-14T09:22:50;12.10;;;9.00;;
55684;SDS011;41883;49.544;8.646;2022-11-14T09:25:17;13.15;;;9.40;;
55684;SDS011;41883;49.544;8.646;2022-11-14T09:27:44;12.13;;;8.83;;
55684;SDS011;41883;49.544;8.646;2022-11-14T09:30:09;12.90;;;9.55;;
55684;SDS011;41883;49.544;8.646;2022-11-14T09:32:35;12.30;;;9.18;;
55684;SDS011;41883;49.544;8.646;2022-11-14T09:35:00;14.20;;;9.35;;
55684;SDS011;41883;49.544;8.646;2022-11-14T09:37:26;10.30;;;7.85;;
55684;SDS011;41883;49.544;8.646;2022-11-14T09:39:51;10.65;;;7.60;;
55684;SDS011;41883;49.544;8.646;2022-11-14T09:45:16;10.57;;;8.13;;
55684;SDS011;41883;49.544;8.646;2022-11-14T09:47:42;13.38;;;9.82;;
55684;SDS011;41883;49.544;8.646;2022-11-14T09:50:19;11.68;;;8.85;;
55684;SDS011;41883;49.544;8.646;2022-11-14T09:53:08;13.10;;;9.52;;
55684;SDS011;41883;49.544;8.646;2022-11-14T09:55:39;11.15;;;8.23;;
55684;SDS011;41883;49.544;8.646;2022-11-14T09:58:05;13.38;;;8.95;;
55684;SDS011;41883;49.544;8.646;2022-11-14T10:00:46;12.25;;;8.80;;
55684;SDS011;41883;49.544;8.646;2022-11-14T10:06:42;12.82;;;9.02;;
55684;SDS011;41883;49.544;8.646;2022-11-14T10:12:04;13.90;;;9.32;;
55684;SDS011;41883;49.544;8.646;2022-11-14T10:14:55;12.40;;;8.55;;
55684;SDS011;41883;49.544;8.646;2022-11-14T10:25:33;12.07;;;8.48;;
55684;SDS011;41883;49.544;8.646;2022-11-14T10:28:38;12.30;;;9.00;;
55684;SDS011;41883;49.544;8.646;2022-11-14T10:31:30;12.18;;;7.60;;
55684;SDS011;41883;49.544;8.646;2022-11-14T10:34:13;12.13;;;8.50;;
55684;SDS011;41883;49.544;8.646;2022-11-14T10:39:53;13.35;;;9.93;;
55684;SDS011;41883;49.544;8.646;2022-11-14T10:42:33;12.32;;;9.20;;
55684;SDS011;41883;49.544;8.646;2022-11-14T10:45:02;12.77;;;8.88;;
55684;SDS011;41883;49.544;8.646;2022-11-14T10:47:34;12.67;;;8.97;;
55684;SDS011;41883;49.544;8.646;2022-11-14T10:50:14;12.20;;;8.35;;
55684;SDS011;41883;49.544;8.646;2022-11-14T10:52:43;12.40;;;8.45;;
55684;SDS011;41883;49.544;8.646;2022-11-14T10:55:14;10.15;;;7.70;;
55684;SDS011;41883;49.544;8.646;2022-11-14T10:57:42;12.10;;;8.57;;
55684;SDS011;41883;49.544;8.646;2022-11-14T11:00:13;10.40;;;7.70;;
55684;SDS011;41883;49.544;8.646;2022-11-14T11:02:53;9.38;;;7.28;;
55684;SDS011;41883;49.544;8.646;2022-11-14T11:05:22;10.27;;;7.25;;
55684;SDS011;41883;49.544;8.646;2022-11-14T11:07:49;10.38;;;7.50;;
55684;SDS011;41883;49.544;8.646;2022-11-14T11:10:34;9.20;;;6.75;;
55684;SDS011;41883;49.544;8.646;2022-11-14T11:13:30;9.32;;;6.63;;
55684;SDS011;41883;49.544;8.646;2022-11-14T11:16:01;10.48;;;8.23;;
55684;SDS011;41883;49.544;8.646;2022-11-14T11:18:32;10.43;;;7.57;;
55684;SDS011;41883;49.544;8.646;2022-11-14T11:21:03;10.02;;;7.40;;
55684;SDS011;41883;49.544;8.646;2022-11-14T11:23:29;12.50;;;8.20;;
55684;SDS011;41883;49.544;8.646;2022-11-14T11:26:02;10.38;;;7.45;;
55684;SDS011;41883;49.544;8.646;2022-11-14T11:28:34;8.93;;;6.80;;
55684;SDS011;41883;49.544;8.646;2022-11-14T11:31:01;8.63;;;6.13;;
55684;SDS011;41883;49.544;8.646;2022-11-14T11:33:38;7.68;;;5.88;;
55684;SDS011;41883;49.544;8.646;2022-11-14T11:36:20;10.60;;;6.90;;
55684;SDS011;41883;49.544;8.646;2022-11-14T11:38:48;11.23;;;7.93;;
55684;SDS011;41883;49.544;8.646;2022-11-14T11:41:26;10.52;;;7.05;;
55684;SDS011;41883;49.544;8.646;2022-11-14T11:44:00;9.18;;;6.63;;
55684;SDS011;41883;49.544;8.646;2022-11-14T11:46:29;8.02;;;5.40;;
55684;SDS011;41883;49.544;8.646;2022-11-14T11:49:04;7.50;;;5.53;;
55684;SDS011;41883;49.544;8.646;2022-11-14T11:51:36;8.05;;;4.75;;
55684;SDS011;41883;49.544;8.646;2022-11-14T11:54:21;4.50;;;3.15;;
55684;SDS011;41883;49.544;8.646;2022-11-14T11:56:51;3.70;;;2.35;;
55684;SDS011;41883;49.544;8.646;2022-11-14T11:59:27;3.25;;;2.25;;
55684;SDS011;41883;49.544;8.646;2022-11-14T12:01:59;4.22;;;2.75;;
55684;SDS011;41883;49.544;8.646;2022-11-14T12:04:27;4.47;;;2.40;;
55684;SDS011;41883;49.544;8.646;2022-11-14T12:07:17;3.92;;;2.58;;
55684;SDS011;41883;49.544;8.646;2022-11-14T12:09:43;4.07;;;2.40;;
55684;SDS011;41883;49.544;8.646;2022-11-14T12:15:51;3.72;;;2.40;;
55684;SDS011;41883;49.544;8.646;2022-11-14T12:23:25;2.60;;;1.97;;
55684;SDS011;41883;49.544;8.646;2022-11-14T12:31:34;4.28;;;2.50;;
55684;SDS011;41883;49.544;8.646;2022-11-14T12:34:05;4.22;;;2.10;;
55684;SDS011;41883;49.544;8.646;2022-11-14T12:36:42;3.33;;;2.17;;
55684;SDS011;41883;49.544;8.646;2022-11-14T12:39:19;3.67;;;2.33;;
55684;SDS011;41883;49.544;8.646;2022-11-14T12:41:49;4.38;;;2.20;;
55684;SDS011;41883;49.544;8.646;2022-11-14T12:47:10;4.43;;;2.10;;
55684;SDS011;41883;49.544;8.646;2022-11-14T12:57:48;4.18;;;2.25;;
55684;SDS011;41883;49.544;8.646;2022-11-14T13:01:23;3.00;;;2.03;;
55684;SDS011;41883;49.544;8.646;2022-11-14T13:06:24;4.15;;;2.65;;
55684;SDS011;41883;49.544;8.646;2022-11-14T13:11:51;3.92;;;2.65;;
55684;SDS011;41883;49.544;8.646;2022-11-14T13:14:51;4.25;;;2.28;;
55684;SDS011;41883;49.544;8.646;2022-11-14T13:17:36;5.13;;;2.42;;
55684;SDS011;41883;49.544;8.646;2022-11-14T13:20:31;3.70;;;2.25;;
55684;SDS011;41883;49.544;8.646;2022-11-14T13:26:18;2.67;;;1.83;;
55684;SDS011;41883;49.544;8.646;2022-11-14T13:33:40;3.13;;;1.80;;
55684;SDS011;41883;49.544;8.646;2022-11-14T13:36:07;3.92;;;2.30;;
55684;SDS011;41883;49.544;8.646;2022-11-14T13:39:18;3.03;;;2.00;;
55684;SDS011;41883;49.544;8.646;2022-11-14T13:52:16;7.57;;;3.30;;
55684;SDS011;41883;49.544;8.646;2022-11-14T13:54:46;6.40;;;4.00;;
55684;SDS011;41883;49.544;8.646;2022-11-14T14:00:13;5.82;;;3.58;;
55684;SDS011;41883;49.544;8.646;2022-11-14T14:02:47;5.63;;;3.05;;
55684;SDS011;41883;49.544;8.646;2022-11-14T14:11:06;5.57;;;4.45;;
55684;SDS011;41883;49.544;8.646;2022-11-14T14:14:16;7.25;;;4.50;;
55684;SDS011;41883;49.544;8.646;2022-11-14T14:16:51;9.35;;;5.53;;
55684;SDS011;41883;49.544;8.646;2022-11-14T14:30:28;8.60;;;6.28;;
55684;SDS011;41883;49.544;8.646;2022-11-14T14:35:32;8.43;;;6.18;;
55684;SDS011;41883;49.544;8.646;2022-11-14T14:37:59;9.07;;;6.05;;
55684;SDS011;41883;49.544;8.646;2022-11-14T14:42:51;7.10;;;5.25;;
55684;SDS011;41883;49.544;8.646;2022-11-14T14:45:19;7.35;;;5.95;;
55684;SDS011;41883;49.544;8.646;2022-11-14T14:47:50;9.50;;;6.07;;
55684;SDS011;41883;49.544;8.646;2022-11-14T14:50:38;8.75;;;6.25;;
55684;SDS011;41883;49.544;8.646;2022-11-14T14:53:06;7.05;;;5.10;;
55684;SDS011;41883;49.544;8.646;2022-11-14T14:55:33;7.97;;;5.53;;
55684;SDS011;41883;49.544;8.646;2022-11-14T14:58:12;9.68;;;6.00;;
55684;SDS011;41883;49.544;8.646;2022-11-14T15:03:17;8.20;;;6.13;;
55684;SDS011;41883;49.544;8.646;2022-11-14T15:05:43;9.75;;;6.35;;
55684;SDS011;41883;49.544;8.646;2022-11-14T15:08:13;8.15;;;6.00;;
55684;SDS011;41883;49.544;8.646;2022-11-14T15:10:40;9.27;;;6.00;;
55684;SDS011;41883;49.544;8.646;2022-11-14T15:13:06;7.60;;;5.57;;
55684;SDS011;41883;49.544;8.646;2022-11-14T15:15:35;9.93;;;6.50;;
55684;SDS011;41883;49.544;8.646;2022-11-14T15:18:04;9.48;;;6.75;;
55684;SDS011;41883;49.544;8.646;2022-11-14T15:20:31;8.98;;;5.93;;
55684;SDS011;41883;49.544;8.646;2022-11-14T15:23:00;7.50;;;6.03;;
55684;SDS011;41883;49.544;8.646;2022-11-14T15:25:30;8.90;;;5.50;;
55684;SDS011;41883;49.544;8.646;2022-11-14T15:27:55;8.30;;;6.03;;
55684;SDS011;41883;49.544;8.646;2022-11-14T15:30:28;8.32;;;6.00;;
55684;SDS011;41883;49.544;8.646;2022-11-14T15:32:56;9.38;;;6.05;;
55684;SDS011;41883;49.544;8.646;2022-11-14T15:35:25;7.55;;;5.53;;
55684;SDS011;41883;49.544;8.646;2022-11-14T15:40:38;6.40;;;4.55;;
55684;SDS011;41883;49.544;8.646;2022-11-14T15:46:04;9.57;;;5.95;;
55684;SDS011;41883;49.544;8.646;2022-11-14T15:48:48;7.28;;;5.60;;
55684;SDS011;41883;49.544;8.646;2022-11-14T15:51:13;6.88;;;5.40;;
55684;SDS011;41883;49.544;8.646;2022-11-14T15:53:39;8.38;;;5.45;;
55684;SDS011;41883;49.544;8.646;2022-11-14T15:56:10;8.70;;;5.47;;
55684;SDS011;41883;49.544;8.646;2022-11-14T15:58:37;7.85;;;5.78;;
55684;SDS011;41883;49.544;8.646;2022-11-14T16:01:02;7.45;;;5.43;;
55684;SDS011;41883;49.544;8.646;2022-11-14T16:03:27;9.90;;;6.07;;
55684;SDS011;41883;49.544;8.646;2022-11-14T16:05:53;9.88;;;5.93;;
55684;SDS011;41883;49.544;8.646;2022-11-14T16:08:18;9.00;;;5.43;;
55684;SDS011;41883;49.544;8.646;2022-11-14T16:10:43;7.65;;;5.70;;
55684;SDS011;41883;49.544;8.646;2022-11-14T16:13:08;8.07;;;6.00;;
55684;SDS011;41883;49.544;8.646;2022-11-14T16:15:35;7.53;;;5.50;;
55684;SDS011;41883;49.544;8.646;2022-11-14T16:18:02;7.78;;;5.22;;
55684;SDS011;41883;49.544;8.646;2022-11-14T16:20:29;7.85;;;5.38;;
55684;SDS011;41883;49.544;8.646;2022-11-14T16:22:56;8.75;;;5.53;;